KSGR/SGR METAR and TAF weather

Enter ICAO airport designator
Station Type Date Time Source
KSGR METAR 2020/09/19 23:53 UTC NOAA

KSGR 192353Z 03013KT 10SM OVC060 29/16 A2995 RMK AO2 SLP143 T02890161 10311 20289 53006


Station Type Date Time Source
KSGR Decoded METAR 2020/09/19 23:53 UTC NOAA

SUGARLAND REGIONAL AIRPORT, TX, United States (KSGR) 29-37N 095-39W
Sep 19, 2020 - 07:53 PM EDT / 2020.09.19 2353 UTC
Wind: from the NNE (030 degrees) at 15 MPH (13 KT):0
Visibility: 10 mile(s):0
Sky conditions: overcast
Temperature: 84.0 F (28.9 C)
Dew Point: 61.0 F (16.1 C)
Relative Humidity: 45%
Pressure (altimeter): 29.95 in. Hg (1014 hPa)
Pressure tendency: 0.02 inches (0.6 hPa) higher than three hours ago
ob: KSGR 192353Z 03013KT 10SM OVC060 29/16 A2995 RMK AO2 SLP143 T02890161 10311 20289 53006
cycle: 0

Station Type Date Time Source
KSGR TAF 2020/09/19 18:42 UTC NOAA

TAF KSGR 191739Z 1918/2018 02014G21KT P6SM FEW050 SCT250
FM200100 03009KT P6SM FEW045 BKN250
FM201500 02014G21KT P6SM BKN015 BKN025
FM201700 02015G22KT P6SM VCSH SCT007 BKN015

Example: see airport list